createdAt,value
2023-01-08T00:01:14.390Z,99846.91
2023-01-08T00:03:44.665Z,99844.03
2023-01-08T00:06:21.415Z,99831.91
2023-01-08T00:08:51.520Z,99823.97
2023-01-08T00:11:21.428Z,99823.81
2023-01-08T00:13:51.353Z,99811.38
2023-01-08T00:16:22.432Z,99815.56
2023-01-08T00:18:52.396Z,99822.84
2023-01-08T00:21:24.922Z,99816.13
2023-01-08T00:23:54.871Z,99814.50
2023-01-08T00:26:25.197Z,99804.91
2023-01-08T00:28:55.576Z,99808.44
2023-01-08T00:31:25.627Z,99794.66
2023-01-08T00:33:55.580Z,99795.81
2023-01-08T00:36:28.130Z,99792.59
2023-01-08T00:38:58.032Z,99784.41
2023-01-08T00:41:27.891Z,99775.47
2023-01-08T00:43:57.764Z,99769.22
2023-01-08T00:46:28.170Z,99772.25
2023-01-08T00:48:58.157Z,99777.66
2023-01-08T00:51:30.547Z,99776.81
2023-01-08T00:54:00.527Z,99773.63
2023-01-08T00:56:30.402Z,99765.38
2023-01-08T00:59:00.350Z,99766.03
2023-01-08T01:01:30.354Z,99758.47
2023-01-08T01:04:00.366Z,99760.31
2023-01-08T01:06:33.172Z,99761.34
2023-01-08T01:09:03.103Z,99759.31
2023-01-08T01:11:32.970Z,99755.28
2023-01-08T01:14:03.148Z,99754.91
2023-01-08T01:16:33.022Z,99753.63
2023-01-08T01:19:02.981Z,99756.31
2023-01-08T01:21:36.489Z,99755.00
2023-01-08T01:24:09.084Z,99757.31
2023-01-08T01:26:38.891Z,99744.25
2023-01-08T01:29:08.771Z,99749.44
2023-01-08T01:31:38.649Z,99755.31
2023-01-08T01:34:08.596Z,99748.25
2023-01-08T01:36:41.063Z,99756.03
2023-01-08T01:39:10.976Z,99756.34
2023-01-08T01:41:43.366Z,99766.41
2023-01-08T01:44:42.356Z,99764.06
2023-01-08T01:47:24.973Z,99760.19
2023-01-08T01:50:03.132Z,99758.22
2023-01-08T01:52:41.153Z,99765.25
2023-01-08T01:55:15.133Z,99766.44
2023-01-08T01:57:53.571Z,99760.41
2023-01-08T02:00:24.096Z,99760.00
2023-01-08T02:02:54.878Z,99758.69
2023-01-08T02:05:32.091Z,99744.25
2023-01-08T02:08:12.574Z,99740.22
2023-01-08T02:10:54.844Z,99735.81
2023-01-08T02:13:32.425Z,99735.66
2023-01-08T02:16:14.668Z,99721.50
2023-01-08T02:18:50.341Z,99716.94
2023-01-08T02:21:29.691Z,99708.25
2023-01-08T02:24:12.548Z,99699.16
2023-01-08T02:26:49.563Z,99702.38
2023-01-08T02:29:24.780Z,99704.56
2023-01-08T02:31:55.056Z,99718.34
2023-01-08T02:34:24.935Z,99708.59
2023-01-08T02:36:57.915Z,99710.56
2023-01-08T02:39:51.049Z,99710.25
2023-01-08T02:42:38.139Z,99708.19
2023-01-08T02:45:28.915Z,99702.34
2023-01-08T02:48:10.391Z,99692.84
2023-01-08T02:50:45.575Z,99681.97
2023-01-08T02:53:21.663Z,99682.97
2023-01-08T02:55:57.651Z,99683.66
2023-01-08T02:58:34.871Z,99666.84
2023-01-08T03:01:09.444Z,99653.91
2023-01-08T03:03:44.562Z,99658.56
2023-01-08T03:06:19.498Z,99665.47
2023-01-08T03:08:53.156Z,99656.03
2023-01-08T03:11:26.088Z,99657.66
2023-01-08T03:14:07.159Z,99648.56
2023-01-08T03:16:42.185Z,99655.69
2023-01-08T03:19:19.569Z,99652.81
2023-01-08T03:21:53.417Z,99657.00
2023-01-08T03:24:27.138Z,99655.97
2023-01-08T03:27:01.632Z,99661.94
2023-01-08T03:29:38.624Z,99665.06
2023-01-08T03:32:14.355Z,99654.66
2023-01-08T03:34:48.901Z,99646.59
2023-01-08T03:37:26.041Z,99639.19
2023-01-08T03:40:03.530Z,99637.13
2023-01-08T03:42:35.826Z,99640.50
2023-01-08T03:45:10.320Z,99631.91
2023-01-08T03:47:43.731Z,99630.41
2023-01-08T03:50:20.479Z,99642.69
2023-01-08T03:52:50.389Z,99636.16
2023-01-08T03:55:20.366Z,99644.91
2023-01-08T03:57:50.222Z,99644.88
2023-01-08T04:00:22.723Z,99645.00
2023-01-08T04:02:52.551Z,99644.88
2023-01-08T04:05:22.431Z,99656.59
2023-01-08T04:07:52.255Z,99658.38
2023-01-08T04:10:22.107Z,99660.72
2023-01-08T04:12:52.098Z,99655.63
2023-01-08T04:15:24.609Z,99656.59
2023-01-08T04:17:54.478Z,99650.50
2023-01-08T04:20:24.415Z,99651.94
2023-01-08T04:22:54.321Z,99660.84
2023-01-08T04:25:24.213Z,99652.28
2023-01-08T04:27:54.080Z,99647.72
2023-01-08T04:30:26.518Z,99653.81
2023-01-08T04:32:56.414Z,99657.00
2023-01-08T04:35:26.327Z,99673.19
2023-01-08T04:37:56.147Z,99662.41
2023-01-08T04:40:26.004Z,99667.38
2023-01-08T04:42:56.043Z,99666.53
2023-01-08T04:45:28.495Z,99675.50
2023-01-08T04:47:59.306Z,99667.59
2023-01-08T04:50:30.046Z,99666.75
2023-01-08T04:53:02.427Z,99668.13
2023-01-08T04:55:32.238Z,99666.75
2023-01-08T04:58:02.189Z,99672.66
2023-01-08T05:00:34.640Z,99675.22
2023-01-08T05:03:04.667Z,99671.06
2023-01-08T05:05:36.156Z,99678.47
2023-01-08T05:08:06.773Z,99681.22
2023-01-08T05:10:36.623Z,99682.22
2023-01-08T05:13:06.481Z,99678.09
2023-01-08T05:15:38.982Z,99673.28
2023-01-08T05:18:09.214Z,99671.00
2023-01-08T05:20:39.106Z,99677.38
2023-01-08T05:23:09.027Z,99663.31
2023-01-08T05:25:39.042Z,99666.22
2023-01-08T05:28:08.929Z,99668.25
2023-01-08T05:30:41.932Z,99664.25
2023-01-08T05:33:11.902Z,99660.09
2023-01-08T05:35:42.681Z,99653.16
2023-01-08T05:38:12.549Z,99651.13
2023-01-08T05:40:42.449Z,99656.44
2023-01-08T05:43:12.292Z,99646.19
2023-01-08T05:45:44.737Z,99648.13
2023-01-08T05:48:14.654Z,99641.72
2023-01-08T05:50:44.577Z,99636.78
2023-01-08T05:53:15.212Z,99638.09
2023-01-08T05:55:45.126Z,99632.16
2023-01-08T05:58:17.487Z,99646.72
2023-01-08T06:00:49.947Z,99634.59
2023-01-08T06:03:23.303Z,99638.59
2023-01-08T06:05:53.184Z,99639.41
2023-01-08T06:08:22.983Z,99629.28
2023-01-08T06:10:52.812Z,99630.69
2023-01-08T06:13:22.714Z,99634.59
2023-01-08T06:15:55.278Z,99630.91
2023-01-08T06:18:25.130Z,99618.78
2023-01-08T06:20:54.967Z,99629.38
2023-01-08T06:23:24.884Z,99628.88
2023-01-08T06:25:56.129Z,99620.16
2023-01-08T06:28:27.170Z,99628.88
2023-01-08T06:31:00.386Z,99620.13
2023-01-08T06:33:31.328Z,99628.88
2023-01-08T06:36:04.687Z,99620.63
2023-01-08T06:38:35.826Z,99619.09
2023-01-08T06:41:07.507Z,99619.94
2023-01-08T06:43:38.216Z,99623.16
2023-01-08T06:46:12.934Z,99626.41
2023-01-08T06:48:42.930Z,99630.66
2023-01-08T06:51:12.732Z,99631.13
2023-01-08T06:53:42.628Z,99633.88
2023-01-08T06:56:13.638Z,99628.50
2023-01-08T06:58:43.511Z,99620.34
2023-01-08T07:01:19.920Z,99618.88
2023-01-08T07:03:49.837Z,99628.44
2023-01-08T07:06:21.884Z,99622.75
2023-01-08T07:08:51.991Z,99627.63
2023-01-08T07:11:21.917Z,99627.75
2023-01-08T07:13:52.340Z,99625.56
2023-01-08T07:16:24.881Z,99620.31
2023-01-08T07:18:54.804Z,99620.69
2023-01-08T07:21:24.681Z,99614.63
2023-01-08T07:23:54.559Z,99619.00
2023-01-08T07:26:24.399Z,99617.66
2023-01-08T07:28:54.310Z,99623.22
2023-01-08T07:31:26.876Z,99629.09
2023-01-08T07:33:56.767Z,99624.69
2023-01-08T07:36:26.587Z,99636.47
2023-01-08T07:38:56.432Z,99637.31
2023-01-08T07:41:26.246Z,99637.81
2023-01-08T07:43:56.144Z,99628.81
2023-01-08T07:46:28.569Z,99638.78
2023-01-08T07:48:59.663Z,99639.34
2023-01-08T07:51:29.887Z,99629.97
2023-01-08T07:53:59.721Z,99630.91
2023-01-08T07:56:29.559Z,99622.44
2023-01-08T07:58:59.492Z,99620.75
2023-01-08T08:01:32.022Z,99614.84
2023-01-08T08:04:04.852Z,99619.56
2023-01-08T08:06:34.666Z,99627.16
2023-01-08T08:09:04.574Z,99617.19
2023-01-08T08:11:34.402Z,99617.91
2023-01-08T08:14:04.298Z,99618.91
2023-01-08T08:16:37.111Z,99622.84
2023-01-08T08:19:07.299Z,99622.28
2023-01-08T08:21:37.215Z,99618.97
2023-01-08T08:24:08.248Z,99628.31
2023-01-08T08:26:38.380Z,99630.13
2023-01-08T08:29:08.316Z,99636.06
2023-01-08T08:31:40.873Z,99642.94
2023-01-08T08:34:10.885Z,99632.03
2023-01-08T08:36:40.821Z,99623.16
2023-01-08T08:39:10.700Z,99640.81
2023-01-08T08:41:40.536Z,99634.25
2023-01-08T08:44:10.674Z,99630.47
2023-01-08T08:46:43.228Z,99623.03
2023-01-08T08:49:13.235Z,99619.69
2023-01-08T08:51:43.084Z,99631.78
2023-01-08T08:54:13.148Z,99623.53
2023-01-08T08:56:43.025Z,99627.38
2023-01-08T08:59:13.312Z,99623.78
2023-01-08T09:01:45.919Z,99623.50
2023-01-08T09:04:15.906Z,99632.56
2023-01-08T09:06:45.800Z,99642.63
2023-01-08T09:09:15.879Z,99637.88
2023-01-08T09:11:45.758Z,99633.97
2023-01-08T09:14:15.725Z,99634.16
2023-01-08T09:16:48.149Z,99630.63
2023-01-08T09:19:18.108Z,99633.13
2023-01-08T09:21:50.746Z,99637.81
2023-01-08T09:24:20.886Z,99642.13
2023-01-08T09:26:50.783Z,99642.88
2023-01-08T09:29:20.617Z,99640.22
2023-01-08T09:31:53.562Z,99638.25
2023-01-08T09:34:23.445Z,99636.28
2023-01-08T09:36:53.287Z,99639.47
2023-01-08T09:39:23.362Z,99630.28
2023-01-08T09:41:54.956Z,99644.78
2023-01-08T09:44:31.083Z,99642.31
2023-01-08T09:47:05.184Z,99642.38
2023-01-08T09:49:42.854Z,99632.78
2023-01-08T09:52:16.019Z,99637.00
2023-01-08T09:54:45.949Z,99636.50
2023-01-08T09:57:19.724Z,99636.53
2023-01-08T09:59:50.548Z,99646.44
2023-01-08T10:02:25.955Z,99645.63
2023-01-08T10:05:00.205Z,99633.19
2023-01-08T10:07:32.278Z,99621.22
2023-01-08T10:10:03.250Z,99619.66
2023-01-08T10:12:36.442Z,99617.69
2023-01-08T10:15:10.942Z,99618.38
2023-01-08T10:17:48.380Z,99617.72
2023-01-08T10:20:20.909Z,99610.69
2023-01-08T10:22:54.312Z,99614.34
2023-01-08T10:25:26.647Z,99597.75
2023-01-08T10:28:00.962Z,99605.47
2023-01-08T10:30:40.000Z,99596.34
2023-01-08T10:33:18.811Z,99587.94
2023-01-08T10:35:58.397Z,99582.09
2023-01-08T10:38:34.983Z,99577.13
2023-01-08T10:41:09.904Z,99571.81
2023-01-08T10:43:52.545Z,99564.25
2023-01-08T10:46:27.947Z,99555.19
2023-01-08T10:49:04.239Z,99554.56
2023-01-08T10:51:36.350Z,99546.50
2023-01-08T10:54:17.474Z,99551.50
2023-01-08T10:56:48.320Z,99536.22
2023-01-08T10:59:22.217Z,99534.78
2023-01-08T11:01:55.928Z,99536.81
2023-01-08T11:04:35.018Z,99535.53
2023-01-08T11:07:09.672Z,99519.13
2023-01-08T11:09:48.947Z,99510.69
2023-01-08T11:12:38.994Z,99508.91
2023-01-08T11:15:30.805Z,99504.00
2023-01-08T11:18:08.948Z,99495.59
2023-01-08T11:20:42.699Z,99491.16
2023-01-08T11:23:19.942Z,99489.31
2023-01-08T11:26:02.760Z,99486.97
2023-01-08T11:28:46.420Z,99481.50
2023-01-08T11:31:20.577Z,99473.13
2023-01-08T11:33:56.997Z,99487.19
2023-01-08T11:36:37.125Z,99484.50
2023-01-08T11:39:11.716Z,99483.22
2023-01-08T11:42:06.924Z,99474.56
2023-01-08T11:44:49.517Z,99466.28
2023-01-08T11:47:30.225Z,99458.31
2023-01-08T11:50:15.983Z,99454.00
2023-01-08T11:53:05.182Z,99439.13
2023-01-08T11:56:00.291Z,99435.81
2023-01-08T11:58:51.316Z,99436.13
2023-01-08T12:01:40.407Z,99430.00
2023-01-08T12:04:39.858Z,99426.31
2023-01-08T12:07:21.307Z,99423.88
2023-01-08T12:10:04.162Z,99420.03
2023-01-08T12:12:51.743Z,99430.56
2023-01-08T12:15:30.429Z,99431.34
2023-01-08T12:18:22.127Z,99430.72
2023-01-08T12:21:05.638Z,99435.75
2023-01-08T12:24:00.632Z,99428.59
2023-01-08T12:26:46.311Z,99427.03
2023-01-08T12:29:45.877Z,99420.69
2023-01-08T12:32:36.432Z,99427.38
2023-01-08T12:35:14.030Z,99430.19
2023-01-08T12:37:52.103Z,99417.44
2023-01-08T12:40:27.651Z,99413.34
2023-01-08T12:43:05.683Z,99406.38
2023-01-08T12:45:42.961Z,99400.97
2023-01-08T12:48:19.472Z,99400.56
2023-01-08T12:51:01.284Z,99392.50
2023-01-08T12:53:46.620Z,99402.59
2023-01-08T12:56:23.807Z,99402.50
2023-01-08T12:59:09.478Z,99400.25
2023-01-08T13:01:50.337Z,99381.72
2023-01-08T13:04:21.646Z,99387.88
2023-01-08T13:07:03.093Z,99383.72
2023-01-08T13:09:35.181Z,99389.84
2023-01-08T13:12:05.297Z,99384.84
2023-01-08T13:14:50.770Z,99388.28
2023-01-08T13:17:25.451Z,99384.00
2023-01-08T13:19:58.641Z,99365.78
2023-01-08T13:22:31.795Z,99365.69
2023-01-08T13:25:30.525Z,99350.38
2023-01-08T13:28:01.240Z,99351.66
2023-01-08T13:30:43.198Z,99342.06
2023-01-08T13:33:39.714Z,99350.66
2023-01-08T13:36:25.511Z,99356.78
2023-01-08T13:39:08.465Z,99353.00
2023-01-08T13:41:40.223Z,99357.63
2023-01-08T13:44:26.218Z,99358.88
2023-01-08T13:47:01.487Z,99354.75
2023-01-08T13:49:38.295Z,99347.16
2023-01-08T13:52:08.581Z,99350.16
2023-01-08T13:54:42.849Z,99349.50
2023-01-08T13:57:18.828Z,99348.13
2023-01-08T13:59:55.440Z,99353.00
2023-01-08T14:02:31.255Z,99352.59
2023-01-08T14:05:03.675Z,99337.91
2023-01-08T14:07:33.537Z,99329.81
2023-01-08T14:10:12.645Z,99322.69
2023-01-08T14:12:43.149Z,99321.09
2023-01-08T14:15:23.919Z,99313.59
2023-01-08T14:17:58.538Z,99299.69
2023-01-08T14:20:36.016Z,99296.75
2023-01-08T14:23:14.133Z,99305.97
2023-01-08T14:25:44.979Z,99309.13
2023-01-08T14:28:20.260Z,99304.56
2023-01-08T14:30:51.233Z,99298.25
2023-01-08T14:33:32.043Z,99307.81
2023-01-08T14:36:04.043Z,99300.19
2023-01-08T14:38:33.959Z,99296.34
2023-01-08T14:41:08.514Z,99305.97
2023-01-08T14:43:45.984Z,99291.56
2023-01-08T14:46:24.734Z,99285.75
2023-01-08T14:48:59.283Z,99287.00
2023-01-08T14:51:33.337Z,99289.41
2023-01-08T14:54:09.630Z,99282.31
2023-01-08T14:56:39.943Z,99285.06
2023-01-08T14:59:13.860Z,99280.88
2023-01-08T15:01:44.101Z,99285.09
2023-01-08T15:04:22.173Z,99276.44
2023-01-08T15:06:54.393Z,99282.25
2023-01-08T15:09:26.447Z,99271.53
2023-01-08T15:11:59.061Z,99275.19
2023-01-08T15:14:33.420Z,99268.63
2023-01-08T15:17:13.822Z,99270.19
2023-01-08T15:19:51.292Z,99262.13
2023-01-08T15:22:24.070Z,99255.84
2023-01-08T15:25:01.008Z,99255.94
2023-01-08T15:27:34.499Z,99251.47
2023-01-08T15:30:04.745Z,99251.19
2023-01-08T15:32:37.350Z,99248.50
2023-01-08T15:35:17.313Z,99238.69
2023-01-08T15:37:47.665Z,99231.06
2023-01-08T15:40:17.811Z,99225.66
2023-01-08T15:43:00.292Z,99236.31
2023-01-08T15:45:32.730Z,99231.00
2023-01-08T15:48:03.046Z,99227.63
2023-01-08T15:50:37.788Z,99208.97
2023-01-08T15:53:10.606Z,99212.69
2023-01-08T15:55:43.491Z,99218.22
2023-01-08T15:58:15.136Z,99211.84
2023-01-08T16:00:47.077Z,99217.59
2023-01-08T16:03:18.568Z,99210.22
2023-01-08T16:05:51.145Z,99215.56
2023-01-08T16:08:21.169Z,99217.09
2023-01-08T16:10:54.826Z,99224.66
2023-01-08T16:13:24.705Z,99219.25
2023-01-08T16:15:55.343Z,99217.00
2023-01-08T16:18:25.308Z,99209.09
2023-01-08T16:21:04.984Z,99201.47
2023-01-08T16:23:36.365Z,99188.50
2023-01-08T16:26:09.132Z,99191.34
2023-01-08T16:28:39.389Z,99187.59
2023-01-08T16:31:09.983Z,99188.41
2023-01-08T16:33:41.009Z,99173.06
2023-01-08T16:36:14.189Z,99171.78
2023-01-08T16:38:44.220Z,99173.44
2023-01-08T16:41:14.121Z,99167.69
2023-01-08T16:43:45.413Z,99164.16
2023-01-08T16:46:18.144Z,99163.53
2023-01-08T16:48:49.488Z,99155.22
2023-01-08T16:51:22.202Z,99142.13
2023-01-08T16:53:52.216Z,99133.53
2023-01-08T16:56:22.198Z,99127.38
2023-01-08T16:58:54.883Z,99123.59
2023-01-08T17:01:24.809Z,99117.09
2023-01-08T17:03:54.759Z,99110.56
2023-01-08T17:06:28.463Z,99112.78
2023-01-08T17:09:01.003Z,99111.09
2023-01-08T17:11:32.251Z,99107.78
2023-01-08T17:14:02.290Z,99098.88
2023-01-08T17:16:32.266Z,99088.06
2023-01-08T17:19:02.181Z,99081.63
2023-01-08T17:21:36.139Z,99067.94
2023-01-08T17:24:06.261Z,99073.72
2023-01-08T17:26:36.352Z,99075.53
2023-01-08T17:29:06.433Z,99076.50
2023-01-08T17:31:40.245Z,99074.31
2023-01-08T17:34:14.805Z,99074.94
2023-01-08T17:36:47.432Z,99071.97
2023-01-08T17:39:17.306Z,99072.34
2023-01-08T17:41:59.755Z,99068.44
2023-01-08T17:44:31.245Z,99068.56
2023-01-08T17:47:01.378Z,99066.47
2023-01-08T17:49:31.363Z,99062.69
2023-01-08T17:52:03.946Z,99064.53
2023-01-08T17:54:34.029Z,99062.25
2023-01-08T17:57:03.960Z,99069.31
2023-01-08T17:59:33.999Z,99067.22
2023-01-08T18:02:04.220Z,99055.66
2023-01-08T18:04:34.623Z,99060.25
2023-01-08T18:07:07.146Z,99057.59
2023-01-08T18:09:37.227Z,99054.41
2023-01-08T18:12:07.694Z,99048.78
2023-01-08T18:14:39.891Z,99046.47
2023-01-08T18:17:09.982Z,99041.06
2023-01-08T18:19:39.894Z,99038.78
2023-01-08T18:22:15.537Z,99032.38
2023-01-08T18:24:45.548Z,99029.03
2023-01-08T18:27:15.427Z,99026.91
2023-01-08T18:29:45.615Z,99014.94
2023-01-08T18:32:15.540Z,99017.38
2023-01-08T18:34:45.454Z,99011.34
2023-01-08T18:37:18.028Z,99010.09
2023-01-08T18:39:48.094Z,99000.53
2023-01-08T18:42:30.959Z,99015.19
2023-01-08T18:45:02.558Z,99009.03
2023-01-08T18:47:33.889Z,99016.28
2023-01-08T18:50:04.022Z,99009.03
2023-01-08T18:52:36.569Z,99001.47
2023-01-08T18:55:06.915Z,98995.44
2023-01-08T18:57:36.823Z,98992.34
2023-01-08T19:00:08.069Z,98992.50
2023-01-08T19:02:38.048Z,98984.88
2023-01-08T19:05:08.825Z,98983.44
2023-01-08T19:07:42.300Z,98976.84
2023-01-08T19:10:14.449Z,98967.97
2023-01-08T19:12:44.442Z,98969.81
2023-01-08T19:15:14.536Z,98966.06
2023-01-08T19:17:44.485Z,98969.59
2023-01-08T19:20:14.792Z,98967.31
2023-01-08T19:22:47.367Z,98958.22
2023-01-08T19:25:17.279Z,98957.00
2023-01-08T19:27:47.721Z,98946.44
2023-01-08T19:30:17.974Z,98958.91
2023-01-08T19:32:49.029Z,98957.03
2023-01-08T19:35:19.239Z,98951.66
2023-01-08T19:37:51.849Z,98949.53
2023-01-08T19:40:21.981Z,98945.44
2023-01-08T19:43:04.420Z,98944.56
2023-01-08T19:45:34.427Z,98944.75
2023-01-08T19:48:04.398Z,98936.28
2023-01-08T19:50:35.268Z,98926.53
2023-01-08T19:53:08.596Z,98922.56
2023-01-08T19:55:38.669Z,98917.63
2023-01-08T19:58:08.979Z,98906.81
2023-01-08T20:00:40.798Z,98911.16
2023-01-08T20:03:10.857Z,98906.56
2023-01-08T20:05:43.863Z,98900.56
2023-01-08T20:08:16.421Z,98894.38
2023-01-08T20:10:46.397Z,98898.91
2023-01-08T20:13:16.673Z,98898.91
2023-01-08T20:15:46.705Z,98898.03
2023-01-08T20:18:16.841Z,98892.69
2023-01-08T20:20:46.788Z,98892.88
2023-01-08T20:23:20.041Z,98889.81
2023-01-08T20:25:50.300Z,98886.69
2023-01-08T20:28:20.215Z,98877.94
2023-01-08T20:30:50.170Z,98881.94
2023-01-08T20:33:20.091Z,98873.84
2023-01-08T20:35:52.476Z,98874.22
2023-01-08T20:38:25.249Z,98889.38
2023-01-08T20:40:55.240Z,98876.75
2023-01-08T20:43:25.340Z,98873.03
2023-01-08T20:45:55.801Z,98864.75
2023-01-08T20:48:27.216Z,98863.06
2023-01-08T20:50:58.106Z,98855.41
2023-01-08T20:53:31.636Z,98853.16
2023-01-08T20:56:05.900Z,98853.94
2023-01-08T20:58:35.963Z,98850.25
2023-01-08T21:01:10.379Z,98849.38
2023-01-08T21:03:41.207Z,98848.97
2023-01-08T21:06:14.363Z,98835.91
2023-01-08T21:08:48.647Z,98828.44
2023-01-08T21:11:20.455Z,98817.69
2023-01-08T21:13:50.956Z,98820.63
2023-01-08T21:16:23.851Z,98818.31
2023-01-08T21:18:54.695Z,98828.00
2023-01-08T21:21:28.774Z,98832.56
2023-01-08T21:24:04.363Z,98824.66
2023-01-08T21:26:36.958Z,98820.53
2023-01-08T21:29:09.096Z,98807.06
2023-01-08T21:31:41.672Z,98802.72
2023-01-08T21:34:12.623Z,98794.19
2023-01-08T21:36:42.663Z,98791.50
2023-01-08T21:39:15.390Z,98797.13
2023-01-08T21:41:57.812Z,98802.94
2023-01-08T21:44:41.409Z,98787.34
2023-01-08T21:47:13.814Z,98781.81
2023-01-08T21:49:43.825Z,98779.94
2023-01-08T21:52:26.219Z,98771.22
2023-01-08T21:54:58.975Z,98774.31
2023-01-08T21:57:29.774Z,98765.63
2023-01-08T21:59:59.805Z,98764.63
2023-01-08T22:02:29.919Z,98755.28
2023-01-08T22:04:59.966Z,98755.94
2023-01-08T22:07:29.898Z,98753.84
2023-01-08T22:10:03.567Z,98746.41
2023-01-08T22:12:33.747Z,98750.50
2023-01-08T22:15:03.719Z,98742.44
2023-01-08T22:17:33.750Z,98731.47
2023-01-08T22:20:05.813Z,98738.97
2023-01-08T22:22:35.726Z,98728.13
2023-01-08T22:25:09.341Z,98727.94
2023-01-08T22:27:39.316Z,98731.41
2023-01-08T22:30:10.897Z,98735.78
2023-01-08T22:32:40.759Z,98732.38
2023-01-08T22:35:11.266Z,98734.72
2023-01-08T22:37:43.644Z,98727.69
2023-01-08T22:40:16.722Z,98727.25
2023-01-08T22:42:46.614Z,98727.72
2023-01-08T22:45:16.519Z,98724.63
2023-01-08T22:47:46.514Z,98725.25
2023-01-08T22:50:16.595Z,98735.16
2023-01-08T22:52:46.427Z,98732.72
2023-01-08T22:55:18.933Z,98736.63
2023-01-08T22:57:48.816Z,98737.63
2023-01-08T23:00:20.369Z,98745.69
2023-01-08T23:02:50.301Z,98745.53
2023-01-08T23:05:20.278Z,98751.09
2023-01-08T23:07:50.258Z,98751.28
2023-01-08T23:10:23.057Z,98736.78
2023-01-08T23:12:53.348Z,98732.09
2023-01-08T23:15:24.855Z,98735.13
2023-01-08T23:17:54.878Z,98737.00
2023-01-08T23:20:25.168Z,98732.59
2023-01-08T23:22:55.156Z,98738.84
2023-01-08T23:25:30.153Z,98729.75
2023-01-08T23:28:00.082Z,98731.78
2023-01-08T23:30:31.647Z,98734.28
2023-01-08T23:33:01.649Z,98727.69
2023-01-08T23:35:31.587Z,98726.88
2023-01-08T23:38:01.481Z,98713.94
2023-01-08T23:40:33.972Z,98720.94
2023-01-08T23:43:03.880Z,98715.19
2023-01-08T23:45:33.774Z,98707.72
2023-01-08T23:48:03.722Z,98719.91
2023-01-08T23:50:34.024Z,98719.41
2023-01-08T23:53:03.982Z,98714.56
2023-01-08T23:55:37.210Z,98715.91
2023-01-08T23:58:07.043Z,98712.41
